Time;durP1;ratioP1;P1;durP2;ratioP2;P2;SDS_P1;SDS_P2;PMS_P1;PMS_P2;Temp;Humidity;BMP_temperature;BMP_pressure;BME280_temperature;BME280_humidity;BME280_pressure;Samples;Min_cycle;Max_cycle;Signal;HPM_P1;HPM_P2
2024/03/12 00:01:08;;;;;;;5.82;3.92;;;;;9.10;98013.00;;;;5014233;28;20041;-66
2024/03/12 00:03:42;;;;;;;4.63;3.72;;;;;9.10;98025.00;;;;5013101;28;20054;-65
2024/03/12 00:06:10;;;;;;;5.23;4.00;;;;;9.10;98025.00;;;;5012739;28;20049;-67
2024/03/12 00:08:36;;;;;;;7.25;3.83;;;;;9.10;98035.00;;;;5014081;28;20351;-66
2024/03/12 00:11:06;;;;;;;6.70;3.88;;;;;9.00;98029.00;;;;5013788;28;20088;-66
2024/03/12 00:13:34;;;;;;;5.53;3.78;;;;;9.00;98032.00;;;;5013882;28;20050;-66
2024/03/12 00:16:00;;;;;;;7.80;3.90;;;;;9.00;98023.00;;;;5013966;28;20112;-66
2024/03/12 00:18:27;;;;;;;5.03;3.92;;;;;8.90;98036.00;;;;5013948;28;20437;-67
2024/03/12 00:20:54;;;;;;;7.22;4.35;;;;;8.90;98037.00;;;;5012483;28;20061;-66
2024/03/12 00:23:22;;;;;;;5.50;3.58;;;;;8.90;98038.00;;;;5012611;28;20509;-66
2024/03/12 00:25:49;;;;;;;5.13;3.80;;;;;8.90;98042.00;;;;5013874;28;20057;-65
2024/03/12 00:28:16;;;;;;;5.13;3.97;;;;;8.90;98048.00;;;;5013813;28;20471;-67
2024/03/12 00:30:44;;;;;;;5.15;3.55;;;;;8.90;98049.00;;;;5012651;28;20096;-66
2024/03/12 00:33:11;;;;;;;3.95;3.55;;;;;9.00;98050.00;;;;4996958;28;20057;-66
2024/03/12 00:35:42;;;;;;;5.28;3.63;;;;;9.00;98057.00;;;;5014376;28;20037;-65
2024/03/12 00:38:10;;;;;;;5.70;3.88;;;;;9.10;98054.00;;;;5014820;28;20756;-66
2024/03/12 00:40:38;;;;;;;4.78;3.70;;;;;9.10;98059.00;;;;5016520;28;20041;-66
2024/03/12 00:43:06;;;;;;;6.45;3.88;;;;;9.20;98064.00;;;;5021456;28;20061;-66
2024/03/12 00:45:37;;;;;;;4.50;3.67;;;;;9.20;98065.00;;;;5021161;28;20046;-66
2024/03/12 00:48:09;;;;;;;5.93;3.38;;;;;9.20;98064.00;;;;5019433;28;20224;-66
2024/03/12 00:50:36;;;;;;;5.13;4.07;;;;;9.20;98052.00;;;;5019167;28;20041;-66
2024/03/12 00:53:03;;;;;;;4.80;4.18;;;;;9.10;98058.00;;;;5018951;28;20066;-66
2024/03/12 00:55:30;;;;;;;4.95;3.67;;;;;9.10;98064.00;;;;5016649;28;20129;-66
2024/03/12 00:57:57;;;;;;;5.20;3.75;;;;;9.20;98058.00;;;;4999154;28;20068;-67
2024/03/12 01:00:33;;;;;;;7.55;4.20;;;;;9.20;98066.00;;;;5017996;28;20096;-67
2024/03/12 01:03:00;;;;;;;7.28;4.63;;;;;9.20;98061.00;;;;5018639;28;20046;-67
2024/03/12 01:05:31;;;;;;;5.68;4.00;;;;;9.20;98054.00;;;;5018875;28;20061;-65
2024/03/12 01:07:59;;;;;;;4.28;3.70;;;;;9.30;98069.00;;;;5017457;28;20034;-65
2024/03/12 01:10:28;;;;;;;4.80;3.83;;;;;9.30;98060.00;;;;5018810;28;20069;-65
2024/03/12 01:12:58;;;;;;;5.70;4.10;;;;;9.40;98054.00;;;;5016948;28;20108;-65
2024/03/12 01:15:25;;;;;;;7.13;4.45;;;;;9.40;98062.00;;;;5017936;28;20042;-65
2024/03/12 01:17:56;;;;;;;5.38;3.97;;;;;9.40;98051.00;;;;5020419;28;20050;-68
2024/03/12 01:20:24;;;;;;;5.28;3.83;;;;;9.40;98059.00;;;;5005176;28;20049;-65
2024/03/12 01:22:56;;;;;;;5.97;3.55;;;;;9.40;98057.00;;;;5020389;28;20474;-68
2024/03/12 01:25:22;;;;;;;5.28;4.30;;;;;9.40;98049.00;;;;5019858;28;20046;-65
2024/03/12 01:27:55;;;;;;;4.85;3.83;;;;;9.40;98053.00;;;;5018058;28;20045;-65
2024/03/12 01:30:26;;;;;;;6.18;3.88;;;;;9.40;98058.00;;;;5018281;28;20049;-65
2024/03/12 01:32:54;;;;;;;4.32;3.70;;;;;9.40;98062.00;;;;5020426;28;20042;-65
2024/03/12 01:35:21;;;;;;;5.40;3.85;;;;;9.40;98050.00;;;;5019345;28;20069;-65
2024/03/12 01:37:51;;;;;;;9.35;4.30;;;;;9.40;98057.00;;;;5009579;28;20088;-65
2024/03/12 01:40:21;;;;;;;6.78;4.32;;;;;9.50;98052.00;;;;4997987;28;20046;-66
2024/03/12 01:42:52;;;;;;;5.72;4.07;;;;;9.50;98053.00;;;;4999494;28;20050;-66
2024/03/12 01:45:21;;;;;;;4.85;4.03;;;;;9.50;98068.00;;;;4998279;28;20065;-68
2024/03/12 01:47:50;;;;;;;5.35;3.92;;;;;9.50;98066.00;;;;4997928;28;20046;-68
2024/03/12 01:50:18;;;;;;;5.85;4.22;;;;;9.50;98069.00;;;;4998511;28;20487;-68
2024/03/12 01:52:46;;;;;;;5.38;4.05;;;;;9.50;98064.00;;;;4999467;28;20062;-68
2024/03/12 01:55:14;;;;;;;6.85;4.18;;;;;9.50;98060.00;;;;4998657;28;20092;-67
2024/03/12 01:57:41;;;;;;;7.07;4.75;;;;;9.50;98067.00;;;;4998896;28;20415;-66
2024/03/12 02:00:10;;;;;;;7.38;4.72;;;;;9.50;98065.00;;;;4998047;28;20053;-66
2024/03/12 02:02:37;;;;;;;6.32;4.53;;;;;9.50;98061.00;;;;4998398;28;20043;-68
2024/03/12 02:05:05;;;;;;;4.97;4.32;;;;;9.60;98074.00;;;;4997961;28;20050;-65
2024/03/12 02:07:34;;;;;;;6.30;4.18;;;;;9.60;98077.00;;;;5001150;28;20041;-65
2024/03/12 02:10:00;;;;;;;6.25;4.03;;;;;9.60;98077.00;;;;5011841;28;20069;-65
2024/03/12 02:12:27;;;;;;;10.45;5.60;;;;;9.60;98077.00;;;;5011749;28;20054;-65
2024/03/12 02:14:54;;;;;;;6.85;4.53;;;;;9.50;98087.00;;;;4992726;28;20060;-65
2024/03/12 02:17:21;;;;;;;7.90;4.60;;;;;9.60;98082.00;;;;5008982;28;20082;-65
2024/03/12 02:19:48;;;;;;;6.63;5.13;;;;;9.60;98088.00;;;;5008882;28;20483;-65
2024/03/12 02:22:15;;;;;;;7.05;4.82;;;;;9.60;98079.00;;;;5009210;28;20049;-64
2024/03/12 02:24:41;;;;;;;5.60;4.53;;;;;9.70;98087.00;;;;5009409;28;20055;-64
2024/03/12 02:27:09;;;;;;;6.63;4.50;;;;;9.60;98083.00;;;;4993024;28;20046;-66
2024/03/12 02:29:36;;;;;;;6.70;4.88;;;;;9.60;98084.00;;;;4992799;28;20069;-67
2024/03/12 02:32:03;;;;;;;7.20;4.63;;;;;9.70;98089.00;;;;4994388;28;20459;-65
2024/03/12 02:34:29;;;;;;;7.00;5.13;;;;;9.70;98092.00;;;;4994674;28;20085;-65
2024/03/12 02:36:56;;;;;;;7.18;6.05;;;;;9.80;98089.00;;;;5003239;28;20657;-68
2024/03/12 02:39:23;;;;;;;6.65;5.28;;;;;9.80;98097.00;;;;5015600;28;20100;-66
2024/03/12 02:41:49;;;;;;;9.55;5.10;;;;;9.80;98090.00;;;;4999682;28;20050;-65
2024/03/12 02:44:16;;;;;;;7.18;5.18;;;;;9.80;98097.00;;;;5016836;28;20136;-64
2024/03/12 02:46:43;;;;;;;6.68;5.53;;;;;9.80;98100.00;;;;5014967;28;20080;-68
2024/03/12 02:49:13;;;;;;;6.80;5.43;;;;;9.70;98100.00;;;;5015077;28;20050;-65
2024/03/12 02:51:40;;;;;;;7.28;5.35;;;;;9.70;98106.00;;;;5015172;28;20303;-64
2024/03/12 02:54:07;;;;;;;7.88;5.65;;;;;9.70;98100.00;;;;5015053;28;20109;-65
2024/03/12 02:56:33;;;;;;;7.60;6.00;;;;;9.70;98106.00;;;;5015095;28;20624;-65
2024/03/12 02:59:00;;;;;;;7.82;6.15;;;;;9.60;98103.00;;;;4998802;28;20050;-64
2024/03/12 03:01:27;;;;;;;8.50;5.85;;;;;9.60;98114.00;;;;5014420;28;20096;-67
2024/03/12 03:03:54;;;;;;;8.20;5.60;;;;;9.60;98113.00;;;;4998725;28;20057;-64
2024/03/12 03:06:23;;;;;;;7.95;5.93;;;;;9.60;98115.00;;;;5016255;28;20046;-65
2024/03/12 03:08:51;;;;;;;7.10;6.00;;;;;9.50;98105.00;;;;5016513;28;20049;-64
2024/03/12 03:11:17;;;;;;;8.75;5.78;;;;;9.60;98117.00;;;;5015110;28;20405;-65
2024/03/12 03:13:44;;;;;;;7.68;6.00;;;;;9.60;98117.00;;;;5014925;28;20049;-64
2024/03/12 03:16:10;;;;;;;9.25;5.97;;;;;9.50;98104.00;;;;5014317;28;20054;-64
2024/03/12 03:18:37;;;;;;;8.30;5.78;;;;;9.60;98113.00;;;;5016479;28;20049;-64
2024/03/12 03:21:04;;;;;;;7.90;6.22;;;;;9.50;98109.00;;;;5014577;28;20498;-65
2024/03/12 03:23:31;;;;;;;10.63;6.20;;;;;9.50;98110.00;;;;5015692;28;20041;-64
2024/03/12 03:25:57;;;;;;;6.93;5.95;;;;;9.60;98111.00;;;;5016060;28;20064;-64
2024/03/12 03:28:24;;;;;;;8.30;6.47;;;;;9.50;98109.00;;;;5015270;28;20129;-64
2024/03/12 03:30:51;;;;;;;8.40;6.53;;;;;9.50;98111.00;;;;5014154;28;20145;-65
2024/03/12 03:33:18;;;;;;;8.40;5.97;;;;;9.50;98112.00;;;;5015935;28;20176;-64
2024/03/12 03:35:45;;;;;;;9.68;5.97;;;;;9.50;98112.00;;;;5015187;28;20418;-64
2024/03/12 03:38:11;;;;;;;8.23;5.85;;;;;9.50;98113.00;;;;5014923;28;20133;-64
2024/03/12 03:40:38;;;;;;;8.43;6.22;;;;;9.50;98106.00;;;;5014831;28;20042;-67
2024/03/12 03:43:04;;;;;;;8.52;6.88;;;;;9.40;98114.00;;;;5016424;28;20046;-65
2024/03/12 03:45:31;;;;;;;8.88;6.97;;;;;9.40;98116.00;;;;5016814;28;20100;-64
2024/03/12 03:47:58;;;;;;;8.73;6.60;;;;;9.40;98117.00;;;;5014971;28;20572;-64
2024/03/12 03:50:25;;;;;;;9.13;6.30;;;;;9.40;98118.00;;;;5012970;28;20046;-64
2024/03/12 03:52:52;;;;;;;8.55;6.47;;;;;9.40;98112.00;;;;5013356;28;20081;-64
2024/03/12 03:55:23;;;;;;;8.85;6.90;;;;;9.40;98122.00;;;;4997464;28;20057;-64
2024/03/12 03:57:50;;;;;;;10.30;6.60;;;;;9.40;98121.00;;;;5014549;28;20046;-65
2024/03/12 04:00:23;;;;;;;8.32;6.40;;;;;9.50;98129.00;;;;5014126;28;20185;-65
2024/03/12 04:02:50;;;;;;;8.75;5.90;;;;;9.60;98131.00;;;;5013120;28;20057;-64
2024/03/12 04:05:18;;;;;;;9.60;7.22;;;;;9.50;98129.00;;;;5012999;28;20057;-64
2024/03/12 04:07:45;;;;;;;7.30;6.20;;;;;9.50;98128.00;;;;5014154;28;20387;-67
2024/03/12 04:10:12;;;;;;;8.13;6.53;;;;;9.60;98139.00;;;;5014062;28;20120;-64
2024/03/12 04:12:44;;;;;;;8.57;6.40;;;;;9.60;98145.00;;;;5014040;28;20038;-63
2024/03/12 04:15:12;;;;;;;10.95;6.63;;;;;9.60;98153.00;;;;5014062;28;20045;-65
2024/03/12 04:17:42;;;;;;;7.63;6.85;;;;;9.70;98158.00;;;;5012853;28;20088;-67
2024/03/12 04:20:10;;;;;;;7.72;6.28;;;;;9.70;98157.00;;;;5012894;28;20046;-64
2024/03/12 04:22:38;;;;;;;9.93;7.40;;;;;9.70;98154.00;;;;5013816;28;20044;-64
2024/03/12 04:25:07;;;;;;;7.80;6.43;;;;;9.60;98169.00;;;;5046254;23;20107;-66
2024/03/12 04:27:37;;;;;;;8.90;6.45;;;;;9.70;98172.00;;;;5032573;28;20041;-66
2024/03/12 04:30:05;;;;;;;9.77;7.55;;;;;9.70;98174.00;;;;5032643;28;20049;-65
2024/03/12 04:32:32;;;;;;;10.60;7.93;;;;;9.80;98179.00;;;;5032265;28;20048;-65
2024/03/12 04:34:59;;;;;;;9.65;7.20;;;;;9.80;98180.00;;;;5032431;28;20053;-66
2024/03/12 04:37:31;;;;;;;8.25;7.00;;;;;9.80;98183.00;;;;5032817;28;20084;-66
2024/03/12 04:40:06;;;;;;;9.65;7.40;;;;;9.80;98180.00;;;;5032180;28;20065;-65
2024/03/12 04:42:34;;;;;;;10.55;7.60;;;;;9.80;98177.00;;;;5031727;28;20049;-65
2024/03/12 04:45:01;;;;;;;9.00;7.05;;;;;9.80;98179.00;;;;5031983;28;20042;-66
2024/03/12 04:47:28;;;;;;;9.60;7.00;;;;;9.70;98188.00;;;;5031844;28;20712;-66
2024/03/12 04:49:57;;;;;;;10.45;7.63;;;;;9.80;98188.00;;;;5015467;28;20555;-66
2024/03/12 04:52:24;;;;;;;11.80;7.43;;;;;9.80;98183.00;;;;5015812;28;20073;-66
2024/03/12 04:54:51;;;;;;;11.32;8.32;;;;;9.80;98188.00;;;;5031430;28;20124;-65
2024/03/12 04:57:19;;;;;;;11.05;7.93;;;;;9.80;98196.00;;;;5015475;28;20153;-66
2024/03/12 04:59:47;;;;;;;11.07;8.13;;;;;9.80;98200.00;;;;5031694;28;20049;-65
2024/03/12 05:02:15;;;;;;;11.68;7.75;;;;;9.80;98197.00;;;;5030823;28;20065;-65
2024/03/12 05:04:41;;;;;;;11.80;8.07;;;;;9.80;98204.00;;;;5031679;28;20103;-65
2024/03/12 05:07:08;;;;;;;9.70;7.22;;;;;9.80;98206.00;;;;5015635;28;20456;-65
2024/03/12 05:09:35;;;;;;;11.35;8.45;;;;;9.70;98219.00;;;;5032780;28;20065;-65
2024/03/12 05:12:02;;;;;;;12.63;8.93;;;;;9.70;98220.00;;;;5014961;28;20042;-65
2024/03/12 05:14:28;;;;;;;11.90;8.38;;;;;9.80;98222.00;;;;5031535;28;20056;-65
2024/03/12 05:16:56;;;;;;;12.93;8.93;;;;;9.80;98226.00;;;;5015082;28;20517;-65
2024/03/12 05:19:24;;;;;;;14.57;10.88;;;;;9.80;98224.00;;;;5031514;28;20045;-65
2024/03/12 05:21:51;;;;;;;12.95;8.95;;;;;9.90;98229.00;;;;5031271;28;20128;-65
2024/03/12 05:24:18;;;;;;;12.77;9.18;;;;;9.80;98226.00;;;;5032574;28;20038;-64
2024/03/12 05:26:49;;;;;;;12.05;8.75;;;;;9.80;98228.00;;;;5032628;28;20501;-66
2024/03/12 05:29:17;;;;;;;15.63;10.13;;;;;9.80;98239.00;;;;5014934;28;20067;-66
2024/03/12 05:31:44;;;;;;;12.15;8.98;;;;;9.90;98234.00;;;;5031317;28;20045;-64
2024/03/12 05:34:16;;;;;;;13.98;8.93;;;;;10.00;98247.00;;;;5032661;28;20103;-64
2024/03/12 05:36:52;;;;;;;13.85;9.93;;;;;9.90;98244.00;;;;5032972;28;20099;-65
2024/03/12 05:39:47;;;;;;;13.85;10.02;;;;;9.90;98251.00;;;;5032125;28;20125;-65
2024/03/12 05:48:07;;;;;;;12.38;9.43;;;;;9.90;98259.00;;;;5032217;28;20473;-67
2024/03/12 05:50:34;;;;;;;13.68;9.38;;;;;9.90;98265.00;;;;5031857;28;20053;-65
2024/03/12 05:53:01;;;;;;;13.80;9.52;;;;;9.90;98262.00;;;;5032739;28;20080;-65
2024/03/12 05:55:27;;;;;;;13.75;9.65;;;;;9.90;98269.00;;;;5015776;28;20144;-65
2024/03/12 05:57:54;;;;;;;15.77;9.10;;;;;9.90;98266.00;;;;5033842;28;20045;-65
2024/03/12 06:00:21;;;;;;;14.23;9.45;;;;;9.80;98259.00;;;;5031839;28;20042;-65
2024/03/12 06:02:49;;;;;;;14.18;9.68;;;;;9.80;98270.00;;;;5014451;28;20551;-66
2024/03/12 06:05:16;;;;;;;14.13;9.90;;;;;9.80;98274.00;;;;5030834;28;20494;-66
2024/03/12 06:07:48;;;;;;;14.38;9.55;;;;;9.80;98282.00;;;;5030695;28;20048;-67
2024/03/12 06:10:16;;;;;;;14.45;10.20;;;;;9.70;98282.00;;;;5030817;28;20072;-66
2024/03/12 06:12:43;;;;;;;14.27;9.57;;;;;9.80;98283.00;;;;5031056;28;20548;-66
2024/03/12 06:15:10;;;;;;;17.23;10.45;;;;;9.80;98283.00;;;;5034910;28;20053;-66
2024/03/12 06:17:36;;;;;;;14.80;10.43;;;;;9.80;98275.00;;;;5035099;28;20052;-66
2024/03/12 06:20:07;;;;;;;15.40;10.07;;;;;9.80;98286.00;;;;5034989;28;20052;-66
2024/03/12 06:22:37;;;;;;;14.70;10.57;;;;;9.90;98288.00;;;;5036196;28;20052;-66
2024/03/12 06:25:03;;;;;;;15.30;10.23;;;;;9.90;98298.00;;;;5018151;28;20054;-66
2024/03/12 06:27:32;;;;;;;14.88;10.57;;;;;9.90;98296.00;;;;5036158;28;20072;-66
2024/03/12 06:29:58;;;;;;;15.38;10.27;;;;;9.90;98296.00;;;;5040018;28;20045;-66
2024/03/12 06:32:31;;;;;;;17.05;11.10;;;;;9.90;98305.00;;;;5043017;28;20041;-66
2024/03/12 06:34:57;;;;;;;14.88;10.27;;;;;10.00;98294.00;;;;5041059;28;20041;-66
2024/03/12 06:37:30;;;;;;;17.35;11.90;;;;;10.00;98300.00;;;;5036272;28;20049;-65
2024/03/12 06:39:57;;;;;;;18.23;10.77;;;;;10.00;98305.00;;;;5035538;28;20052;-65
2024/03/12 06:42:29;;;;;;;16.13;11.35;;;;;10.00;98298.00;;;;5034005;28;20054;-65
2024/03/12 06:44:56;;;;;;;15.88;11.05;;;;;10.00;98311.00;;;;5035272;28;20038;-65
2024/03/12 06:47:24;;;;;;;19.17;12.32;;;;;10.10;98313.00;;;;5035859;28;20045;-65
2024/03/12 06:49:51;;;;;;;16.95;11.50;;;;;10.10;98315.00;;;;5035812;28;20397;-65
2024/03/12 06:52:18;;;;;;;18.60;12.18;;;;;10.10;98324.00;;;;5017602;28;20045;-66
2024/03/12 06:54:44;;;;;;;21.05;12.95;;;;;10.10;98324.00;;;;5033927;28;20045;-66
2024/03/12 06:57:11;;;;;;;18.20;12.10;;;;;10.10;98317.00;;;;5035171;28;20045;-66
2024/03/12 06:59:43;;;;;;;19.75;12.98;;;;;10.10;98330.00;;;;5033967;28;20129;-66
2024/03/12 07:02:11;;;;;;;21.05;12.93;;;;;10.10;98331.00;;;;5033721;28;20045;-66
2024/03/12 07:04:47;;;;;;;18.85;13.70;;;;;10.10;98326.00;;;;5017646;28;20050;-66
2024/03/12 07:07:20;;;;;;;17.92;12.52;;;;;10.10;98331.00;;;;5033991;28;20140;-66
2024/03/12 07:09:47;;;;;;;21.60;12.57;;;;;10.10;98336.00;;;;5034047;28;20042;-66
2024/03/12 07:12:18;;;;;;;19.80;13.55;;;;;10.10;98335.00;;;;5017716;28;20049;-66
2024/03/12 07:14:54;;;;;;;21.40;13.60;;;;;10.20;98350.00;;;;5035260;28;20158;-66
2024/03/12 07:17:21;;;;;;;21.90;13.32;;;;;10.20;98342.00;;;;5035304;28;20049;-66
2024/03/12 07:19:49;;;;;;;21.83;14.02;;;;;10.30;98344.00;;;;5035129;28;20054;-66
2024/03/12 07:22:17;;;;;;;20.70;14.52;;;;;10.30;98354.00;;;;5035363;28;20033;-66
2024/03/12 07:24:44;;;;;;;21.30;14.25;;;;;10.30;98356.00;;;;5034359;28;20075;-67
2024/03/12 07:27:13;;;;;;;25.48;15.00;;;;;10.30;98362.00;;;;5035456;28;20136;-67
2024/03/12 07:29:43;;;;;;;23.33;15.10;;;;;10.30;98351.00;;;;5035317;28;20083;-66
2024/03/12 07:32:10;;;;;;;22.73;15.85;;;;;10.30;98360.00;;;;5034051;28;20141;-66
2024/03/12 07:34:39;;;;;;;21.83;15.13;;;;;10.30;98362.00;;;;5033519;28;20054;-66
2024/03/12 07:37:06;;;;;;;25.95;16.77;;;;;10.40;98370.00;;;;5034486;28;20379;-66
2024/03/12 07:39:35;;;;;;;22.75;15.07;;;;;10.50;98368.00;;;;5034363;28;20048;-66
2024/03/12 07:42:09;;;;;;;23.20;15.43;;;;;10.50;98379.00;;;;5034161;28;20045;-66
2024/03/12 07:44:40;;;;;;;23.85;14.40;;;;;10.50;98378.00;;;;5034130;28;20044;-65
2024/03/12 07:47:09;;;;;;;24.88;15.77;;;;;10.60;98381.00;;;;5016578;28;20045;-66
2024/03/12 07:49:36;;;;;;;21.73;14.57;;;;;10.70;98381.00;;;;5033027;28;20143;-67
2024/03/12 07:52:05;;;;;;;23.92;15.43;;;;;10.70;98384.00;;;;5032623;28;20049;-70
2024/03/12 07:54:33;;;;;;;22.50;15.25;;;;;10.80;98384.00;;;;5016669;28;20493;-68
2024/03/12 07:57:00;;;;;;;28.25;16.38;;;;;10.80;98390.00;;;;5032715;28;20046;-68
2024/03/12 07:59:30;;;;;;;23.00;16.55;;;;;10.70;98388.00;;;;5034093;28;20049;-68
2024/03/12 08:01:57;;;;;;;25.02;15.25;;;;;10.70;98394.00;;;;5032581;28;20045;-68
2024/03/12 08:04:28;;;;;;;24.95;16.38;;;;;10.80;98398.00;;;;5032922;28;20045;-68
2024/03/12 08:06:54;;;;;;;24.02;15.52;;;;;10.80;98395.00;;;;5033294;28;20382;-67
2024/03/12 08:09:22;;;;;;;25.48;16.92;;;;;10.90;98396.00;;;;5033913;28;20469;-68
2024/03/12 08:11:49;;;;;;;22.27;15.77;;;;;10.90;98401.00;;;;5033811;28;20038;-68
2024/03/12 08:14:17;;;;;;;25.65;17.13;;;;;11.00;98399.00;;;;5033784;28;20421;-68
2024/03/12 08:16:44;;;;;;;24.00;16.23;;;;;11.00;98401.00;;;;5032591;28;20056;-67
2024/03/12 08:19:11;;;;;;;24.85;16.88;;;;;11.10;98404.00;;;;5033809;28;20125;-67
2024/03/12 08:21:38;;;;;;;27.35;18.13;;;;;11.00;98406.00;;;;5015767;28;20060;-67
2024/03/12 08:24:05;;;;;;;24.17;17.15;;;;;11.00;98403.00;;;;5032112;28;20071;-68
2024/03/12 08:26:32;;;;;;;24.88;17.38;;;;;11.00;98400.00;;;;5032473;28;20053;-68
2024/03/12 08:28:59;;;;;;;27.48;16.88;;;;;11.00;98411.00;;;;5032344;28;20049;-68
2024/03/12 08:31:27;;;;;;;29.05;18.05;;;;;11.00;98406.00;;;;5033851;28;20041;-68
2024/03/12 08:34:13;;;;;;;26.23;18.60;;;;;11.00;98406.00;;;;5038218;28;20041;-69
2024/03/12 08:36:40;;;;;;;25.75;16.88;;;;;10.90;98408.00;;;;5039458;28;20500;-69
2024/03/12 08:39:07;;;;;;;26.42;17.35;;;;;10.90;98407.00;;;;5037990;28;20049;-69
2024/03/12 08:41:34;;;;;;;26.17;17.27;;;;;11.00;98415.00;;;;5033757;28;20046;-68
2024/03/12 08:44:00;;;;;;;26.63;16.95;;;;;11.10;98420.00;;;;5031992;28;20041;-68
2024/03/12 08:46:28;;;;;;;24.95;16.30;;;;;11.00;98415.00;;;;5032108;28;20065;-68
2024/03/12 08:48:55;;;;;;;26.30;16.67;;;;;11.00;98420.00;;;;5033327;28;20050;-68
2024/03/12 08:51:23;;;;;;;25.92;17.33;;;;;10.90;98429.00;;;;5031562;28;20509;-68
2024/03/12 08:53:51;;;;;;;23.42;16.52;;;;;10.90;98432.00;;;;5031675;28;20040;-68
2024/03/12 08:56:19;;;;;;;31.05;18.17;;;;;10.90;98430.00;;;;5032910;28;20033;-68
2024/03/12 08:58:49;;;;;;;27.40;18.60;;;;;10.90;98434.00;;;;5031493;28;20045;-69
2024/03/12 09:01:15;;;;;;;28.20;18.15;;;;;11.00;98439.00;;;;5032677;28;20045;-68
2024/03/12 09:03:43;;;;;;;30.17;18.23;;;;;11.10;98441.00;;;;5031476;28;20421;-68
2024/03/12 09:06:12;;;;;;;34.95;20.80;;;;;11.10;98443.00;;;;5031722;28;20046;-68
2024/03/12 09:08:39;;;;;;;36.40;20.63;;;;;11.10;98444.00;;;;5033021;28;20049;-68
2024/03/12 09:11:07;;;;;;;30.50;19.92;;;;;11.10;98442.00;;;;5031263;28;20466;-68
2024/03/12 09:13:33;;;;;;;34.60;21.02;;;;;11.10;98440.00;;;;5015187;28;20046;-68
2024/03/12 09:16:01;;;;;;;29.13;18.25;;;;;11.20;98446.00;;;;5031692;28;20053;-68
2024/03/12 09:18:28;;;;;;;29.25;19.38;;;;;11.30;98455.00;;;;5032823;28;20073;-68
2024/03/12 09:20:55;;;;;;;31.13;19.50;;;;;11.30;98446.00;;;;5032913;28;20060;-68
2024/03/12 09:23:22;;;;;;;31.83;19.20;;;;;11.40;98444.00;;;;5031498;28;20048;-69
2024/03/12 09:25:48;;;;;;;28.20;18.05;;;;;11.40;98449.00;;;;5032414;28;20037;-69
2024/03/12 09:28:16;;;;;;;27.48;18.20;;;;;11.50;98450.00;;;;5028140;28;20049;-69
2024/03/12 09:30:43;;;;;;;28.33;18.73;;;;;11.50;98455.00;;;;5027750;28;20045;-69
2024/03/12 09:33:10;;;;;;;27.95;17.75;;;;;11.50;98451.00;;;;5012907;28;20121;-68
2024/03/12 09:35:37;;;;;;;24.27;16.55;;;;;11.30;98459.00;;;;5027902;28;20061;-69
2024/03/12 09:38:06;;;;;;;27.83;18.45;;;;;11.20;98463.00;;;;5012589;28;20661;-67
2024/03/12 09:40:32;;;;;;;29.58;19.25;;;;;11.10;98465.00;;;;5012314;28;20103;-67
2024/03/12 09:43:00;;;;;;;31.58;19.55;;;;;11.00;98472.00;;;;5012593;28;20038;-66
2024/03/12 09:45:27;;;;;;;29.50;19.60;;;;;10.90;98478.00;;;;5027649;28;20041;-67
2024/03/12 09:47:54;;;;;;;29.75;19.67;;;;;10.80;98477.00;;;;5012315;28;20058;-67
2024/03/12 09:50:23;;;;;;;28.42;19.65;;;;;10.80;98485.00;;;;5012385;28;20060;-68
2024/03/12 09:52:50;;;;;;;29.83;19.45;;;;;10.90;98481.00;;;;5020113;28;20060;-66
2024/03/12 09:55:18;;;;;;;27.30;18.40;;;;;11.00;98484.00;;;;5024648;28;20469;-66
2024/03/12 09:57:45;;;;;;;27.10;16.98;;;;;10.90;98480.00;;;;5031514;28;20448;-69
2024/03/12 10:00:18;;;;;;;28.60;18.08;;;;;10.80;98498.00;;;;5013153;28;20057;-66
2024/03/12 10:02:47;;;;;;;40.13;25.23;;;;;10.70;98498.00;;;;5031624;28;20052;-65
2024/03/12 10:05:15;;;;;;;35.70;24.67;;;;;10.60;98504.00;;;;5032014;28;20063;-64
2024/03/12 10:08:06;;;;;;;27.63;19.90;;;;;10.60;98502.00;;;;5032157;28;20675;-66
2024/03/12 10:10:38;;;;;;;29.05;19.15;;;;;10.50;98496.00;;;;5031812;28;20041;-66
2024/03/12 10:13:08;;;;;;;28.65;19.10;;;;;10.40;98510.00;;;;5031930;28;20037;-64
2024/03/12 10:15:36;;;;;;;28.80;19.85;;;;;10.40;98516.00;;;;5030507;28;20502;-65
2024/03/12 10:18:06;;;;;;;27.60;18.52;;;;;10.30;98512.00;;;;5031898;28;20528;-66
2024/03/12 10:20:56;;;;;;;24.50;15.38;;;;;10.20;98518.00;;;;5031722;28;20080;-66
2024/03/12 10:23:25;;;;;;;23.38;15.32;;;;;10.10;98511.00;;;;5031811;28;20486;-65
2024/03/12 10:26:07;;;;;;;23.25;15.00;;;;;10.10;98516.00;;;;5031500;28;20540;-65
2024/03/12 10:28:34;;;;;;;27.73;17.20;;;;;10.10;98516.00;;;;5030481;28;20134;-65
2024/03/12 10:31:08;;;;;;;26.20;17.40;;;;;10.10;98518.00;;;;5014887;28;20056;-65
2024/03/12 10:33:37;;;;;;;30.98;17.10;;;;;10.10;98520.00;;;;5043705;22;20049;-64
2024/03/12 10:36:04;;;;;;;26.60;17.80;;;;;10.20;98515.00;;;;5013918;28;20049;-64
2024/03/12 10:38:32;;;;;;;29.15;18.67;;;;;10.30;98517.00;;;;5030498;28;20144;-65
2024/03/12 10:41:19;;;;;;;29.77;18.90;;;;;10.30;98520.00;;;;5031461;28;20041;-64
2024/03/12 10:43:55;;;;;;;32.72;21.70;;;;;10.20;98513.00;;;;5046642;28;20049;-64
2024/03/12 10:46:23;;;;;;;34.03;19.65;;;;;10.30;98510.00;;;;5030444;28;20053;-64
2024/03/12 10:48:50;;;;;;;29.42;17.95;;;;;10.20;98511.00;;;;5031659;28;20080;-64
2024/03/12 10:51:19;;;;;;;29.92;20.23;;;;;10.20;98512.00;;;;5030537;28;20042;-64
2024/03/12 10:53:49;;;;;;;29.40;17.17;;;;;10.30;98511.00;;;;5030519;28;20045;-64
2024/03/12 10:56:17;;;;;;;23.42;16.38;;;;;10.30;98515.00;;;;5031736;28;20489;-64
2024/03/12 10:58:48;;;;;;;24.27;16.48;;;;;10.30;98515.00;;;;5030198;28;20491;-64
2024/03/12 11:01:19;;;;;;;30.75;20.23;;;;;10.40;98517.00;;;;5016801;28;20062;-64
2024/03/12 11:03:56;;;;;;;29.10;18.88;;;;;10.50;98516.00;;;;5039073;28;20041;-64
2024/03/12 11:06:25;;;;;;;27.63;18.15;;;;;10.60;98516.00;;;;5027432;28;20052;-64
2024/03/12 11:08:52;;;;;;;34.65;21.25;;;;;10.70;98512.00;;;;5017942;28;20148;-64
2024/03/12 11:11:18;;;;;;;28.90;17.67;;;;;10.90;98520.00;;;;5034279;28;20041;-64
2024/03/12 11:13:48;;;;;;;28.88;17.92;;;;;11.20;98517.00;;;;5017990;28;20061;-64
2024/03/12 11:16:17;;;;;;;26.35;16.95;;;;;11.40;98515.00;;;;5035905;28;20046;-64
2024/03/12 11:18:45;;;;;;;25.95;17.15;;;;;11.50;98517.00;;;;5036239;28;20072;-64
2024/03/12 11:21:16;;;;;;;26.85;17.02;;;;;11.70;98516.00;;;;5034355;28;20132;-64
2024/03/12 11:23:45;;;;;;;27.38;18.50;;;;;11.80;98520.00;;;;5035035;28;20041;-65
2024/03/12 11:26:14;;;;;;;28.05;18.40;;;;;11.80;98520.00;;;;5037142;28;20107;-63
2024/03/12 11:28:48;;;;;;;28.08;18.17;;;;;11.90;98517.00;;;;5037103;28;20099;-63
2024/03/12 11:31:18;;;;;;;26.92;17.45;;;;;12.10;98527.00;;;;5035514;28;20469;-63
2024/03/12 11:33:49;;;;;;;25.25;16.98;;;;;12.20;98524.00;;;;5036360;28;20037;-64
2024/03/12 11:36:28;;;;;;;26.77;17.25;;;;;12.30;98526.00;;;;5037578;28;20046;-64
2024/03/12 11:39:04;;;;;;;27.42;17.63;;;;;12.40;98534.00;;;;5034534;28;20117;-65
2024/03/12 11:42:10;;;;;;;27.83;17.42;;;;;12.40;98530.00;;;;5035540;28;20069;-64
2024/03/12 11:44:53;;;;;;;23.05;16.63;;;;;12.50;98535.00;;;;5035927;28;20438;-64
2024/03/12 11:47:30;;;;;;;25.75;18.05;;;;;12.40;98526.00;;;;5036197;28;20045;-65
2024/03/12 11:49:58;;;;;;;26.65;17.63;;;;;12.40;98526.00;;;;5034732;28;20099;-65
2024/03/12 11:52:31;;;;;;;26.83;17.27;;;;;12.40;98544.00;;;;5034929;28;20037;-65
2024/03/12 11:54:59;;;;;;;27.25;17.02;;;;;12.40;98531.00;;;;5034617;28;20042;-66
2024/03/12 11:57:30;;;;;;;29.55;17.20;;;;;12.30;98536.00;;;;5033279;28;20049;-65
2024/03/12 11:59:58;;;;;;;24.00;16.63;;;;;12.20;98538.00;;;;5033375;28;20145;-63
2024/03/12 12:02:26;;;;;;;22.98;16.20;;;;;12.10;98546.00;;;;5033098;28;20041;-64
2024/03/12 12:04:55;;;;;;;25.67;17.90;;;;;11.90;98547.00;;;;5032738;28;20072;-64
2024/03/12 12:07:25;;;;;;;25.67;16.58;;;;;11.70;98536.00;;;;5033975;28;20060;-64
2024/03/12 12:09:52;;;;;;;25.52;17.08;;;;;11.60;98547.00;;;;5033923;28;20080;-63
2024/03/12 12:12:20;;;;;;;25.33;17.75;;;;;11.50;98543.00;;;;5032579;28;20041;-64
2024/03/12 12:14:47;;;;;;;28.77;18.02;;;;;11.40;98550.00;;;;5032741;28;20088;-63
2024/03/12 12:17:22;;;;;;;31.15;18.33;;;;;11.30;98548.00;;;;5032680;28;20049;-63
2024/03/12 12:20:04;;;;;;;28.40;18.55;;;;;11.10;98551.00;;;;5032547;28;20080;-63
2024/03/12 12:22:34;;;;;;;28.80;19.98;;;;;11.00;98549.00;;;;5032264;28;20552;-63
2024/03/12 12:25:02;;;;;;;32.97;19.73;;;;;11.00;98558.00;;;;5033661;28;20045;-64